Time;durP1;ratioP1;P1;durP2;ratioP2;P2;SDS_P1;SDS_P2;PMS_P1;PMS_P2;Temp;Humidity;BMP_temperature;BMP_pressure;BME280_temperature;BME280_humidity;BME280_pressure;Samples;Min_cycle;Max_cycle;Signal;HPM_P1;HPM_P2
2022/01/21 00:00:28;;;;;;;5.87;2.77;;;3.20;99.90;;;;;;5068860;28;20415;-39
2022/01/21 00:02:55;;;;;;;6.20;2.40;;;3.10;99.90;;;;;;5069475;28;20542;-39
2022/01/21 00:05:23;;;;;;;9.40;2.67;;;3.00;99.90;;;;;;5066501;28;20438;-39
2022/01/21 00:07:49;;;;;;;5.20;2.13;;;3.20;99.90;;;;;;5061989;28;20514;-39
2022/01/21 00:10:15;;;;;;;6.40;2.60;;;3.10;99.90;;;;;;5068814;28;20501;-42
2022/01/21 00:12:40;;;;;;;10.00;2.20;;;3.40;99.90;;;;;;5077693;28;20418;-41
2022/01/21 00:15:10;;;;;;;9.27;2.73;;;3.10;99.90;;;;;;5076838;28;20293;-39
2022/01/21 00:17:35;;;;;;;10.07;2.63;;;3.30;99.90;;;;;;5089222;28;20554;-40
2022/01/21 00:30:58;;;;;;;5.60;2.73;;;3.10;99.90;;;;;;5068729;28;20419;-39
2022/01/21 00:33:24;;;;;;;11.30;3.67;;;3.10;99.90;;;;;;5069146;28;20438;-39
2022/01/21 00:35:50;;;;;;;13.00;3.70;;;3.10;99.90;;;;;;5065116;28;21001;-40
2022/01/21 00:38:16;;;;;;;10.00;3.30;;;3.20;99.90;;;;;;5058277;28;20250;-39
2022/01/21 00:40:42;;;;;;;16.37;3.77;;;2.90;99.90;;;;;;5068327;28;20200;-39
2022/01/21 00:46:02;;;;;;;8.07;4.20;;;3.20;99.90;;;;;;5046008;28;20469;-39
2022/01/21 00:48:28;;;;;;;10.17;2.93;;;3.00;99.90;;;;;;5069202;28;20430;-39
2022/01/21 00:50:54;;;;;;;6.47;2.77;;;3.20;99.90;;;;;;5063729;28;20522;-41
2022/01/21 00:53:20;;;;;;;19.57;4.90;;;3.10;99.90;;;;;;5060916;28;20197;-39
2022/01/21 00:55:46;;;;;;;10.07;3.57;;;2.90;99.90;;;;;;5068525;28;20435;-40
2022/01/21 00:58:11;;;;;;;6.73;3.50;;;3.10;99.90;;;;;;5068870;28;20427;-40
2022/01/21 01:00:37;;;;;;;9.17;3.30;;;3.00;99.90;;;;;;5067850;28;20857;-40
2022/01/21 01:03:03;;;;;;;12.83;4.10;;;3.10;99.90;;;;;;5068961;28;20217;-40
2022/01/21 01:05:29;;;;;;;9.17;3.00;;;2.90;99.90;;;;;;5068479;28;20185;-39
2022/01/21 01:07:55;;;;;;;8.03;2.77;;;3.00;99.90;;;;;;5060972;28;20937;-39
2022/01/21 01:10:39;;;;;;;7.80;2.87;;;3.00;99.90;;;;;;5067702;28;20427;-41
2022/01/21 01:21:20;;;;;;;7.10;3.83;;;2.70;99.90;;;;;;5075326;28;20761;-39
2022/01/21 01:29:11;;;;;;;6.50;2.80;;;2.90;99.90;;;;;;5068334;28;20928;-39
2022/01/21 01:31:37;;;;;;;6.23;2.50;;;2.80;99.90;;;;;;5067321;28;20419;-39
2022/01/21 01:34:04;;;;;;;7.20;2.73;;;2.80;99.90;;;;;;5068151;28;20446;-40
2022/01/21 01:36:30;;;;;;;9.23;3.10;;;2.90;99.90;;;;;;5062720;28;20327;-40
2022/01/21 01:39:13;;;;;;;11.90;3.60;;;2.90;99.90;;;;;;5061986;28;20903;-39
2022/01/21 01:41:59;;;;;;;7.90;3.27;;;3.00;99.90;;;;;;5065703;28;20997;-39
2022/01/21 01:49:54;;;;;;;9.90;4.23;;;3.00;99.90;;;;;;5067314;28;20431;-39
2022/01/21 01:52:20;;;;;;;8.53;2.90;;;2.90;99.90;;;;;;5057794;28;20462;-40
2022/01/21 01:54:52;;;;;;;7.53;3.60;;;2.90;99.90;;;;;;5067644;28;20185;-41
2022/01/21 01:57:18;;;;;;;6.87;3.33;;;3.10;99.90;;;;;;5067454;28;20204;-39
2022/01/21 01:59:44;;;;;;;13.30;6.27;;;2.80;99.90;;;;;;5067115;28;20777;-39
2022/01/21 02:02:12;;;;;;;11.90;4.17;;;2.90;99.90;;;;;;5066804;28;20222;-41
2022/01/21 02:04:40;;;;;;;6.97;3.27;;;3.00;99.90;;;;;;5067483;28;20427;-40
2022/01/21 02:07:07;;;;;;;9.50;3.50;;;2.80;99.90;;;;;;5062023;28;20475;-39
2022/01/21 02:09:33;;;;;;;10.70;4.00;;;2.80;99.90;;;;;;5065498;28;20439;-39
2022/01/21 02:11:59;;;;;;;7.83;2.97;;;3.00;99.90;;;;;;5070339;28;20848;-39
2022/01/21 02:14:32;;;;;;;5.10;3.47;;;3.00;99.90;;;;;;5085446;28;20426;-39
2022/01/21 02:22:15;;;;;;;10.73;2.70;;;3.00;99.90;;;;;;5067188;28;20218;-39
2022/01/21 02:25:15;;;;;;;9.13;4.43;;;3.00;99.90;;;;;;5066479;28;20428;-40
2022/01/21 02:27:27;;;;;;;9.93;3.13;;;2.80;99.90;;;;;;5066706;28;20431;-39
2022/01/21 02:30:00;;;;;;;8.20;2.97;;;3.10;99.90;;;;;;5066370;28;20519;-39
2022/01/21 02:32:25;;;;;;;14.60;3.80;;;3.10;99.90;;;;;;5065868;28;20537;-41
2022/01/21 02:34:51;;;;;;;8.33;2.70;;;3.00;99.90;;;;;;5066794;28;20545;-39
2022/01/21 02:37:20;;;;;;;7.17;3.00;;;2.80;99.90;;;;;;5057433;28;20233;-39
2022/01/21 02:39:46;;;;;;;9.97;3.00;;;3.00;99.90;;;;;;5064794;28;20294;-39
2022/01/21 02:42:12;;;;;;;9.20;3.53;;;2.70;99.90;;;;;;5066627;28;20900;-39
2022/01/21 02:44:39;;;;;;;12.60;3.97;;;3.00;99.90;;;;;;5066559;28;20447;-39
2022/01/21 02:47:06;;;;;;;8.87;3.57;;;2.90;99.90;;;;;;5066785;28;20428;-39
2022/01/21 02:49:33;;;;;;;7.17;3.13;;;3.10;99.90;;;;;;5066444;28;21066;-40
2022/01/21 02:52:02;;;;;;;15.00;4.03;;;3.30;99.90;;;;;;5060027;28;21345;-39
2022/01/21 02:54:34;;;;;;;9.33;3.80;;;2.90;99.90;;;;;;5058216;28;20455;-39
2022/01/21 02:57:01;;;;;;;8.23;3.00;;;3.00;99.90;;;;;;5066525;28;20960;-39
2022/01/21 02:59:27;;;;;;;12.83;5.47;;;2.80;99.90;;;;;;5053191;28;20446;-39
2022/01/21 03:01:53;;;;;;;9.10;2.80;;;2.90;99.90;;;;;;5065977;28;20832;-39
2022/01/21 03:06:54;;;;;;;10.20;3.93;;;3.20;99.90;;;;;;5062297;28;20440;-39
2022/01/21 03:09:20;;;;;;;12.60;3.10;;;2.90;99.90;;;;;;5057071;28;20486;-40
2022/01/21 03:11:45;;;;;;;8.20;2.70;;;3.00;99.90;;;;;;5067056;28;20547;-40
2022/01/21 03:14:11;;;;;;;9.10;3.33;;;3.10;99.90;;;;;;5085291;28;20180;-39
2022/01/21 03:16:37;;;;;;;6.07;3.17;;;3.20;99.90;;;;;;5074024;28;20203;-39
2022/01/21 03:19:02;;;;;;;9.50;3.30;;;3.00;99.90;;;;;;5086329;28;20662;-39
2022/01/21 03:21:28;;;;;;;13.23;3.60;;;3.00;99.90;;;;;;5086044;28;20313;-40
2022/01/21 03:23:55;;;;;;;7.63;2.93;;;3.10;99.90;;;;;;5056870;28;20651;-39
2022/01/21 03:26:26;;;;;;;3.67;3.13;;;3.00;99.90;;;;;;5066335;28;20935;-39
2022/01/21 03:28:55;;;;;;;8.80;3.60;;;2.90;99.90;;;;;;5066602;28;20453;-39
2022/01/21 03:31:22;;;;;;;9.27;3.57;;;2.90;99.90;;;;;;5065277;28;20905;-40
2022/01/21 03:33:47;;;;;;;9.37;3.70;;;3.10;99.90;;;;;;5066461;28;20454;-39
2022/01/21 03:36:13;;;;;;;9.40;3.53;;;3.10;99.90;;;;;;5066386;28;20435;-39
2022/01/21 03:38:39;;;;;;;11.67;4.20;;;3.00;99.90;;;;;;5055276;28;20610;-39
2022/01/21 03:41:06;;;;;;;6.23;2.97;;;3.00;99.90;;;;;;5065224;28;20515;-40
2022/01/21 03:43:32;;;;;;;5.97;2.90;;;2.90;99.90;;;;;;5066129;28;20524;-39
2022/01/21 03:45:59;;;;;;;10.20;3.43;;;3.00;99.90;;;;;;5065981;28;20903;-39
2022/01/21 03:48:25;;;;;;;11.23;3.53;;;2.90;99.90;;;;;;5066279;28;20430;-39
2022/01/21 03:50:51;;;;;;;12.17;3.03;;;2.90;99.90;;;;;;5065611;28;20466;-39
2022/01/21 03:53:17;;;;;;;10.70;3.40;;;2.90;99.90;;;;;;5055299;28;21036;-39
2022/01/21 03:55:44;;;;;;;5.60;2.70;;;2.80;99.90;;;;;;5062139;28;20439;-40
2022/01/21 03:58:12;;;;;;;7.70;3.10;;;3.20;99.90;;;;;;5065933;28;20435;-39
2022/01/21 04:00:50;;;;;;;16.40;3.20;;;3.10;99.90;;;;;;5065224;28;20431;-40
2022/01/21 04:03:16;;;;;;;5.53;3.00;;;3.00;99.90;;;;;;5066059;28;20791;-40
2022/01/21 04:05:42;;;;;;;12.27;3.40;;;2.80;99.90;;;;;;5069474;28;20415;-39
2022/01/21 04:08:09;;;;;;;6.47;2.90;;;3.10;99.90;;;;;;5059311;28;20470;-39
2022/01/21 04:10:35;;;;;;;7.63;2.70;;;3.10;99.90;;;;;;5067601;28;20622;-39
2022/01/21 04:13:03;;;;;;;6.50;2.83;;;3.20;99.90;;;;;;5080969;28;20441;-39
2022/01/21 04:15:28;;;;;;;6.97;2.63;;;3.20;99.90;;;;;;5088929;28;20444;-40
2022/01/21 04:17:54;;;;;;;7.90;3.40;;;3.00;99.90;;;;;;5081507;28;20513;-39
2022/01/21 04:20:20;;;;;;;9.80;3.00;;;3.10;99.90;;;;;;5088984;28;20452;-40
2022/01/21 04:22:46;;;;;;;7.47;2.60;;;3.00;99.90;;;;;;5078333;28;20511;-39
2022/01/21 04:25:12;;;;;;;7.67;2.60;;;3.10;99.90;;;;;;5065589;28;20188;-39
2022/01/21 04:27:38;;;;;;;13.60;3.20;;;3.10;99.90;;;;;;5069029;28;20185;-39
2022/01/21 04:30:06;;;;;;;9.57;3.10;;;3.00;99.90;;;;;;5068398;28;20435;-39
2022/01/21 04:32:31;;;;;;;8.10;3.73;;;3.30;99.90;;;;;;5069086;28;20921;-40
2022/01/21 04:34:57;;;;;;;6.63;3.37;;;3.20;99.90;;;;;;5068995;28;20443;-40
2022/01/21 04:37:23;;;;;;;9.47;3.50;;;2.90;99.90;;;;;;5066383;28;20231;-39
2022/01/21 04:39:59;;;;;;;9.70;3.30;;;3.10;99.90;;;;;;5061686;28;20280;-40
2022/01/21 04:47:53;;;;;;;4.10;2.60;;;3.20;99.90;;;;;;5068928;28;20427;-39
2022/01/21 04:50:19;;;;;;;6.63;3.10;;;3.00;99.90;;;;;;5068182;28;20547;-40
2022/01/21 04:52:45;;;;;;;9.53;4.67;;;2.90;99.90;;;;;;5064531;28;20251;-39
2022/01/21 04:55:11;;;;;;;8.97;3.87;;;3.10;99.90;;;;;;5060440;28;20280;-39
2022/01/21 04:57:37;;;;;;;10.57;3.33;;;3.20;99.90;;;;;;5068512;28;21005;-39
2022/01/21 05:00:06;;;;;;;11.40;4.53;;;3.20;99.90;;;;;;5067920;28;20474;-39
2022/01/21 05:02:33;;;;;;;7.40;4.00;;;3.00;99.90;;;;;;5068445;28;20782;-42
2022/01/21 05:04:59;;;;;;;14.20;4.53;;;3.30;99.90;;;;;;5068483;28;20423;-39
2022/01/21 05:07:27;;;;;;;9.40;3.50;;;3.30;99.90;;;;;;5067149;28;20782;-39
2022/01/21 05:09:52;;;;;;;6.13;3.43;;;3.00;99.90;;;;;;5059210;28;20227;-39
2022/01/21 05:12:21;;;;;;;5.30;2.97;;;2.80;99.90;;;;;;5068425;28;20443;-40
2022/01/21 05:17:22;;;;;;;7.23;3.60;;;2.90;99.90;;;;;;5067540;28;20521;-39
2022/01/21 05:19:48;;;;;;;8.57;3.40;;;3.20;99.90;;;;;;5067481;28;20434;-39
2022/01/21 05:22:14;;;;;;;6.13;3.07;;;3.00;99.90;;;;;;5068029;28;20836;-39
2022/01/21 05:24:40;;;;;;;11.30;3.30;;;3.20;99.90;;;;;;5053567;28;20224;-39
2022/01/21 05:27:06;;;;;;;11.77;3.60;;;3.20;99.90;;;;;;5068045;28;20777;-39
2022/01/21 05:29:34;;;;;;;5.83;3.43;;;3.20;99.90;;;;;;5068043;28;20185;-39
2022/01/21 05:32:00;;;;;;;7.63;3.60;;;3.30;99.90;;;;;;5067865;28;20504;-39
2022/01/21 05:34:26;;;;;;;7.17;3.47;;;3.10;99.90;;;;;;5067759;28;20428;-41
2022/01/21 05:36:52;;;;;;;5.80;3.40;;;3.20;99.90;;;;;;5068064;28;20436;-39
2022/01/21 05:39:19;;;;;;;10.97;4.43;;;3.30;99.90;;;;;;5055567;28;20448;-39
2022/01/21 05:41:48;;;;;;;8.30;3.33;;;3.20;99.90;;;;;;5057417;28;20950;-39
2022/01/21 05:46:23;;;;;;;8.50;3.70;;;3.20;99.90;;;;;;5054882;28;20977;-39
2022/01/21 05:47:09;;;;;;;9.80;4.50;;;2.80;99.90;;;;;;5062286;28;20474;-40
2022/01/21 05:49:36;;;;;;;7.97;4.70;;;2.90;99.90;;;;;;5065584;28;20510;-40
2022/01/21 05:52:08;;;;;;;9.50;2.93;;;3.10;99.90;;;;;;5067343;28;20940;-40
2022/01/21 05:54:34;;;;;;;9.73;3.87;;;3.00;99.90;;;;;;5059506;28;20773;-39
2022/01/21 05:57:04;;;;;;;8.10;2.57;;;3.10;99.90;;;;;;5064086;28;20955;-39
2022/01/21 05:59:30;;;;;;;6.23;3.40;;;2.80;99.90;;;;;;5065406;28;20463;-39
2022/01/21 06:01:56;;;;;;;5.90;2.80;;;2.90;99.90;;;;;;5065607;28;20558;-40
2022/01/21 06:04:22;;;;;;;6.10;2.70;;;2.90;99.90;;;;;;5067444;28;20542;-40
2022/01/21 06:06:48;;;;;;;7.40;4.43;;;2.90;99.90;;;;;;5065850;28;20208;-39
2022/01/21 06:09:13;;;;;;;4.83;3.10;;;2.90;99.90;;;;;;5058154;28;20475;-39
2022/01/21 06:11:39;;;;;;;8.27;3.53;;;2.80;99.90;;;;;;5066051;28;20330;-40
2022/01/21 06:14:05;;;;;;;10.23;4.43;;;2.80;99.90;;;;;;5066817;28;20291;-40
2022/01/21 06:16:33;;;;;;;11.60;4.30;;;2.90;99.90;;;;;;5067141;28;20193;-40
2022/01/21 06:18:59;;;;;;;7.70;3.63;;;2.90;99.90;;;;;;5054109;28;20565;-39
2022/01/21 06:21:24;;;;;;;5.33;3.70;;;3.10;99.90;;;;;;5066761;28;20534;-39
2022/01/21 06:23:50;;;;;;;11.13;3.80;;;3.00;99.90;;;;;;5057965;28;20281;-40
2022/01/21 06:26:16;;;;;;;9.07;3.40;;;3.00;99.90;;;;;;5063129;28;20188;-41
2022/01/21 06:28:42;;;;;;;9.10;3.40;;;3.00;99.90;;;;;;5066464;28;20228;-39
2022/01/21 06:31:07;;;;;;;7.47;3.30;;;3.00;99.90;;;;;;5065151;28;20185;-41
2022/01/21 06:33:33;;;;;;;4.50;3.40;;;2.90;99.90;;;;;;5067205;28;20200;-40
2022/01/21 06:35:59;;;;;;;6.07;3.23;;;2.90;99.90;;;;;;5066370;28;20208;-39
2022/01/21 06:38:25;;;;;;;8.70;3.30;;;3.10;99.90;;;;;;5060911;28;20573;-41
2022/01/21 06:40:51;;;;;;;5.70;3.57;;;3.10;99.90;;;;;;5064749;28;20193;-40
2022/01/21 06:43:17;;;;;;;6.27;2.90;;;2.90;99.90;;;;;;5067474;28;20212;-39
2022/01/21 06:45:43;;;;;;;7.43;3.60;;;3.30;99.90;;;;;;5066733;28;20511;-39
2022/01/21 06:48:10;;;;;;;7.40;3.80;;;3.00;99.90;;;;;;5067027;28;20506;-40
2022/01/21 06:50:41;;;;;;;5.80;2.80;;;2.90;99.90;;;;;;5066108;28;20894;-39
2022/01/21 06:53:07;;;;;;;4.73;2.60;;;3.20;99.90;;;;;;5065086;28;20477;-39
2022/01/21 06:55:33;;;;;;;4.77;2.97;;;3.20;99.90;;;;;;5061020;28;20447;-39
2022/01/21 06:57:59;;;;;;;5.00;4.07;;;3.30;99.90;;;;;;5067657;28;20518;-39
2022/01/21 07:00:25;;;;;;;5.63;3.07;;;3.20;99.90;;;;;;5065668;28;20763;-39
2022/01/21 07:02:52;;;;;;;6.60;3.70;;;3.40;99.90;;;;;;5066926;28;20638;-39
2022/01/21 07:05:19;;;;;;;8.00;3.43;;;3.30;99.90;;;;;;5066843;28;20458;-39
2022/01/21 07:07:45;;;;;;;4.50;3.03;;;3.20;99.90;;;;;;5065367;28;20877;-40
2022/01/21 07:10:13;;;;;;;6.77;4.10;;;3.00;99.90;;;;;;5056882;28;20435;-39
2022/01/21 07:12:39;;;;;;;8.03;3.70;;;3.00;99.90;;;;;;5066217;28;20414;-39
2022/01/21 07:15:07;;;;;;;6.47;3.83;;;2.80;99.90;;;;;;5065466;28;21002;-39
2022/01/21 07:17:33;;;;;;;5.87;4.20;;;2.80;99.90;;;;;;5066527;28;20431;-40
2022/01/21 07:19:59;;;;;;;8.13;4.10;;;2.70;99.90;;;;;;5065741;28;21010;-39
2022/01/21 07:22:24;;;;;;;6.50;3.40;;;2.70;99.90;;;;;;5067158;28;20808;-40
2022/01/21 07:24:50;;;;;;;8.50;5.30;;;2.80;99.90;;;;;;5060273;28;20242;-41
2022/01/21 07:27:16;;;;;;;7.20;3.93;;;3.00;99.90;;;;;;5067290;28;20611;-39
2022/01/21 07:29:42;;;;;;;8.03;4.07;;;3.00;99.90;;;;;;5066434;28;20185;-39
2022/01/21 07:32:08;;;;;;;9.73;4.40;;;2.90;99.90;;;;;;5065325;28;20405;-40
2022/01/21 07:34:34;;;;;;;8.03;3.60;;;2.90;99.90;;;;;;5068611;28;20753;-39
2022/01/21 07:37:00;;;;;;;7.30;5.10;;;2.80;99.90;;;;;;5065655;28;20435;-39
2022/01/21 07:39:26;;;;;;;9.17;3.90;;;3.10;99.90;;;;;;5064349;28;20413;-39
2022/01/21 07:41:52;;;;;;;8.17;4.20;;;3.10;99.90;;;;;;5070493;28;20427;-39
2022/01/21 07:44:18;;;;;;;11.00;4.47;;;2.80;99.90;;;;;;5070572;28;20189;-41
2022/01/21 07:46:45;;;;;;;6.93;4.07;;;2.60;99.90;;;;;;5072158;28;20423;-39
2022/01/21 07:49:11;;;;;;;9.83;4.60;;;2.80;99.90;;;;;;5071411;28;20411;-39
2022/01/21 07:51:37;;;;;;;6.87;4.13;;;2.70;99.90;;;;;;5082587;28;20427;-39
2022/01/21 07:54:04;;;;;;;7.53;4.57;;;2.70;99.90;;;;;;5062724;28;21002;-39
2022/01/21 07:56:32;;;;;;;6.20;4.30;;;2.70;99.90;;;;;;5059848;28;20209;-40
2022/01/21 07:58:58;;;;;;;10.13;4.47;;;2.90;99.90;;;;;;5069695;28;20423;-39
2022/01/21 08:01:24;;;;;;;8.67;5.07;;;2.80;99.90;;;;;;5069327;28;20850;-39
2022/01/21 08:03:50;;;;;;;10.53;4.70;;;2.80;99.90;;;;;;5069814;28;20437;-39
2022/01/21 08:06:15;;;;;;;6.50;4.63;;;3.10;99.90;;;;;;5068243;28;20224;-39
2022/01/21 08:08:41;;;;;;;12.30;4.80;;;3.20;99.90;;;;;;5065625;28;20560;-40
2022/01/21 08:11:07;;;;;;;9.37;4.97;;;3.00;99.90;;;;;;5059199;28;20409;-39
2022/01/21 08:13:33;;;;;;;7.77;4.10;;;3.00;99.90;;;;;;5070714;28;20193;-40
2022/01/21 08:16:00;;;;;;;10.93;5.83;;;3.30;99.90;;;;;;5069813;28;20273;-39
2022/01/21 08:18:26;;;;;;;10.30;4.93;;;3.30;99.90;;;;;;5068399;28;20192;-40
2022/01/21 08:20:51;;;;;;;9.00;4.77;;;3.30;99.90;;;;;;5069442;28;20469;-39
2022/01/21 08:23:17;;;;;;;12.00;5.97;;;3.40;99.90;;;;;;5069836;28;20673;-41
2022/01/21 08:25:44;;;;;;;8.20;5.03;;;3.20;99.90;;;;;;5062013;28;20185;-40
2022/01/21 08:28:09;;;;;;;10.80;5.30;;;3.20;99.90;;;;;;5069483;28;20423;-42
2022/01/21 08:30:35;;;;;;;7.87;5.33;;;3.10;99.90;;;;;;5068998;28;20421;-39
2022/01/21 08:33:01;;;;;;;7.57;4.63;;;3.10;99.90;;;;;;5069339;28;20686;-39
2022/01/21 08:35:27;;;;;;;11.00;5.90;;;3.40;99.90;;;;;;5069144;28;20439;-41
2022/01/21 08:37:53;;;;;;;14.63;5.97;;;3.20;99.90;;;;;;5069007;28;20918;-39
2022/01/21 08:40:21;;;;;;;14.30;5.10;;;3.20;99.90;;;;;;5061903;28;20436;-41
2022/01/21 08:42:46;;;;;;;9.80;5.83;;;3.40;99.90;;;;;;5070089;28;20528;-40
2022/01/21 08:45:13;;;;;;;7.10;4.87;;;3.40;99.90;;;;;;5067798;28;20418;-40
2022/01/21 08:47:41;;;;;;;12.97;7.33;;;3.20;99.90;;;;;;5069586;28;20276;-40
2022/01/21 08:50:10;;;;;;;11.23;5.97;;;3.20;99.90;;;;;;5079025;28;20449;-40
2022/01/21 08:52:37;;;;;;;10.27;5.47;;;3.40;99.90;;;;;;5082906;28;20423;-39
2022/01/21 08:55:09;;;;;;;13.90;5.93;;;3.30;99.90;;;;;;5067425;28;20504;-41
2022/01/21 08:57:37;;;;;;;10.30;5.40;;;3.10;99.90;;;;;;5067692;28;20427;-41
2022/01/21 09:00:12;;;;;;;11.50;5.70;;;3.20;99.90;;;;;;5068432;28;20510;-40
2022/01/21 09:02:38;;;;;;;9.53;5.60;;;3.20;99.90;;;;;;5068461;28;20501;-40
2022/01/21 09:05:04;;;;;;;14.43;6.37;;;3.00;99.90;;;;;;5071162;28;20455;-40
2022/01/21 09:07:30;;;;;;;15.47;7.07;;;3.10;99.90;;;;;;5065433;28;20420;-39
2022/01/21 09:09:56;;;;;;;16.37;7.07;;;3.20;99.90;;;;;;5058324;28;20436;-40
2022/01/21 09:12:21;;;;;;;8.77;5.77;;;3.20;99.90;;;;;;5068196;28;20990;-39
2022/01/21 09:14:47;;;;;;;11.23;6.53;;;3.40;99.90;;;;;;5069135;28;20255;-39
2022/01/21 09:17:13;;;;;;;11.10;6.00;;;3.30;99.90;;;;;;5068186;28;20626;-40
2022/01/21 09:19:39;;;;;;;11.13;5.70;;;3.40;99.90;;;;;;5068120;28;20655;-39
2022/01/21 09:22:05;;;;;;;11.63;7.17;;;3.40;99.90;;;;;;5068363;28;20423;-39
2022/01/21 09:24:33;;;;;;;14.77;7.80;;;3.40;99.90;;;;;;5065106;28;20434;-39
2022/01/21 09:27:03;;;;;;;8.77;5.30;;;3.50;99.90;;;;;;5068141;28;20458;-39
2022/01/21 09:29:30;;;;;;;13.20;6.50;;;3.40;99.90;;;;;;5068266;28;20428;-39
2022/01/21 09:31:56;;;;;;;14.00;7.00;;;3.50;99.90;;;;;;5066310;28;20724;-40
2022/01/21 09:34:24;;;;;;;11.77;7.43;;;3.70;99.90;;;;;;5068123;28;20423;-39
2022/01/21 09:36:50;;;;;;;12.03;6.67;;;3.80;99.90;;;;;;5067231;28;20497;-39
2022/01/21 09:39:17;;;;;;;10.00;7.30;;;4.00;99.90;;;;;;5066092;28;20838;-40
2022/01/21 09:41:43;;;;;;;12.83;6.00;;;4.00;99.90;;;;;;5059271;28;20502;-40
2022/01/21 09:44:17;;;;;;;9.73;6.80;;;4.00;99.90;;;;;;5067938;28;20502;-40
2022/01/21 09:46:46;;;;;;;11.73;7.20;;;3.90;99.90;;;;;;5068489;28;20914;-40
2022/01/21 09:49:27;;;;;;;13.87;8.07;;;3.90;99.90;;;;;;5068046;28;20435;-39
2022/01/21 09:51:59;;;;;;;14.37;7.17;;;3.90;99.90;;;;;;5067871;28;20451;-40
2022/01/21 09:54:32;;;;;;;15.43;8.10;;;3.90;99.90;;;;;;5065700;28;20416;-39
2022/01/21 09:56:59;;;;;;;8.70;6.97;;;4.20;99.90;;;;;;5061302;28;20458;-39
2022/01/21 09:59:27;;;;;;;10.07;7.33;;;4.20;99.90;;;;;;5067911;28;20434;-39
2022/01/21 10:02:05;;;;;;;11.40;7.50;;;4.10;99.90;;;;;;5066806;28;20430;-39
2022/01/21 10:04:34;;;;;;;12.60;7.27;;;4.20;99.90;;;;;;5067737;28;20442;-41
2022/01/21 10:07:02;;;;;;;8.50;6.87;;;4.50;99.90;;;;;;5066329;28;20411;-39
2022/01/21 10:09:28;;;;;;;11.57;7.20;;;4.90;99.90;;;;;;5064282;28;20506;-39
2022/01/21 10:11:55;;;;;;;16.27;8.37;;;5.10;99.90;;;;;;5055405;28;20689;-39
2022/01/21 10:14:26;;;;;;;17.53;8.13;;;4.90;99.90;;;;;;5067669;28;20176;-39
2022/01/21 10:16:52;;;;;;;9.93;7.03;;;5.40;99.90;;;;;;5066258;28;20443;-40
2022/01/21 10:19:27;;;;;;;11.03;7.27;;;5.90;99.90;;;;;;5067652;28;20886;-39
2022/01/21 10:22:16;;;;;;;9.60;6.43;;;6.00;99.90;;;;;;5065133;28;20442;-39
2022/01/21 10:24:58;;;;;;;12.87;7.27;;;5.80;99.90;;;;;;5065658;28;20802;-39
2022/01/21 10:27:28;;;;;;;9.23;6.53;;;6.10;99.90;;;;;;5061415;28;20749;-39
2022/01/21 10:29:55;;;;;;;12.23;7.53;;;6.40;99.90;;;;;;5066812;28;20415;-39
2022/01/21 10:32:35;;;;;;;12.00;8.07;;;6.40;99.90;;;;;;5067197;28;20767;-40
2022/01/21 10:35:01;;;;;;;16.13;8.70;;;6.20;99.90;;;;;;5067630;28;20475;-41
2022/01/21 10:37:31;;;;;;;14.40;8.63;;;6.20;99.90;;;;;;5067325;28;20465;-40
2022/01/21 10:40:07;;;;;;;18.77;10.40;;;5.70;99.90;;;;;;5061450;28;20473;-39
2022/01/21 10:42:33;;;;;;;13.23;10.87;;;5.70;99.90;;;;;;5063705;28;20463;-39
2022/01/21 10:44:59;;;;;;;13.47;10.90;;;5.60;99.90;;;;;;5067176;28;20416;-40
2022/01/21 10:47:31;;;;;;;17.60;12.73;;;5.50;99.90;;;;;;5067185;28;20522;-40
2022/01/21 10:50:02;;;;;;;19.60;12.33;;;5.40;99.90;;;;;;5066657;28;20415;-39
2022/01/21 10:52:37;;;;;;;17.33;10.80;;;5.70;99.90;;;;;;5067000;28;20429;-40
2022/01/21 10:55:05;;;;;;;17.97;9.60;;;5.50;99.90;;;;;;5062427;28;20923;-39
2022/01/21 10:57:32;;;;;;;13.10;9.03;;;5.60;99.90;;;;;;5059658;28;20485;-40
2022/01/21 11:00:09;;;;;;;18.27;9.63;;;5.80;99.90;;;;;;5066636;28;20782;-39
2022/01/21 11:02:48;;;;;;;12.47;9.00;;;6.00;99.90;;;;;;5066931;28;20463;-39
2022/01/21 11:05:31;;;;;;;14.30;8.73;;;6.10;99.90;;;;;;5067573;28;20457;-39
2022/01/21 11:08:05;;;;;;;11.43;8.57;;;6.10;99.90;;;;;;5066167;28;20423;-39
2022/01/21 11:10:39;;;;;;;12.50;8.07;;;6.00;99.90;;;;;;5062393;28;20613;-39
2022/01/21 11:13:11;;;;;;;13.97;8.90;;;6.30;99.90;;;;;;5064094;28;20442;-39
2022/01/21 11:15:42;;;;;;;9.93;7.07;;;6.20;99.90;;;;;;5070503;28;20454;-39
2022/01/21 11:18:12;;;;;;;14.40;7.57;;;6.30;99.90;;;;;;5070775;28;20686;-40
2022/01/21 11:20:40;;;;;;;13.67;7.27;;;6.20;99.90;;;;;;5070693;28;20426;-40
2022/01/21 11:23:08;;;;;;;11.30;8.00;;;6.00;99.90;;;;;;5070726;28;20462;-40
2022/01/21 11:25:45;;;;;;;12.43;7.47;;;6.50;99.90;;;;;;5063117;28;20973;-41
2022/01/21 11:28:15;;;;;;;10.50;7.20;;;6.40;99.90;;;;;;5067461;28;20474;-39
2022/01/21 11:30:42;;;;;;;9.87;6.43;;;6.80;99.90;;;;;;5069852;28;20443;-39
2022/01/21 11:33:07;;;;;;;9.53;6.20;;;7.10;99.90;;;;;;5070560;28;20419;-39
2022/01/21 11:35:34;;;;;;;13.40;6.30;;;7.50;99.90;;;;;;5070701;28;20433;-40
2022/01/21 11:38:04;;;;;;;8.07;5.80;;;7.40;99.90;;;;;;5070732;28;20872;-39
2022/01/21 11:40:30;;;;;;;14.43;6.33;;;7.20;99.90;;;;;;5065124;28;20443;-39
2022/01/21 11:42:57;;;;;;;11.47;6.50;;;7.00;99.90;;;;;;5064870;28;20459;-41
2022/01/21 11:50:30;;;;;;;8.10;6.40;;;6.60;99.90;;;;;;5069744;28;20415;-39
2022/01/21 11:52:56;;;;;;;10.07;6.00;;;6.30;99.90;;;;;;5070528;28;20463;-39
2022/01/21 11:55:37;;;;;;;9.20;5.90;;;6.00;99.90;;;;;;5066618;28;20483;-39
2022/01/21 11:58:12;;;;;;;11.00;6.10;;;5.90;99.90;;;;;;5064916;28;20190;-39
2022/01/21 12:00:39;;;;;;;11.00;5.93;;;6.00;99.90;;;;;;5069581;28;20442;-39
2022/01/21 12:03:06;;;;;;;9.70;6.10;;;6.10;99.90;;;;;;5070030;28;20751;-40
2022/01/21 12:05:33;;;;;;;12.40;5.50;;;6.10;99.90;;;;;;5069876;28;20479;-39
2022/01/21 12:08:04;;;;;;;13.20;6.13;;;5.80;99.90;;;;;;5084708;28;20778;-40
2022/01/21 12:10:36;;;;;;;16.00;5.67;;;6.00;99.90;;;;;;5065620;28;21022;-40
2022/01/21 12:13:17;;;;;;;8.90;5.07;;;5.90;99.90;;;;;;5069127;28;20937;-39
2022/01/21 12:18:31;;;;;;;13.13;7.17;;;6.20;99.90;;;;;;5068661;28;20514;-41
2022/01/21 12:21:06;;;;;;;11.70;5.73;;;6.00;99.90;;;;;;5069248;28;20419;-40
2022/01/21 12:23:43;;;;;;;10.00;5.20;;;5.90;99.90;;;;;;5088120;28;20793;-39
2022/01/21 12:26:19;;;;;;;10.47;5.47;;;6.00;99.90;;;;;;5061970;28;20432;-40
2022/01/21 12:28:49;;;;;;;11.73;6.10;;;6.00;99.90;;;;;;5068675;28;20415;-39
2022/01/21 12:31:16;;;;;;;9.80;6.03;;;5.80;99.90;;;;;;5068589;28;20458;-39
2022/01/21 12:34:07;;;;;;;8.03;5.57;;;5.80;99.90;;;;;;5069009;28;20438;-40
2022/01/21 12:36:40;;;;;;;9.60;5.50;;;5.90;99.90;;;;;;5067680;28;20779;-39
2022/01/21 12:39:35;;;;;;;14.10;5.13;;;5.80;99.90;;;;;;5068491;28;20430;-39
2022/01/21 12:42:25;;;;;;;9.57;5.03;;;6.00;99.90;;;;;;5056003;28;20760;-39
2022/01/21 12:45:05;;;;;;;9.90;4.73;;;5.90;99.90;;;;;;5067541;28;21136;-40
2022/01/21 12:47:45;;;;;;;19.70;7.17;;;5.60;99.90;;;;;;5067755;28;20587;-39
2022/01/21 12:50:36;;;;;;;10.13;5.80;;;5.70;99.90;;;;;;5068599;28;20415;-40
2022/01/21 12:58:21;;;;;;;9.10;4.30;;;5.80;99.90;;;;;;5063428;28;20941;-39
2022/01/21 13:00:47;;;;;;;12.23;4.87;;;5.80;99.90;;;;;;5070259;28;20893;-39
2022/01/21 13:03:16;;;;;;;8.30;5.90;;;6.00;99.90;;;;;;5069173;28;20565;-39
2022/01/21 13:05:45;;;;;;;10.93;4.30;;;5.70;99.90;;;;;;5069089;28;20663;-39
2022/01/21 13:08:12;;;;;;;11.83;4.57;;;5.90;99.90;;;;;;5068578;28;20456;-40
2022/01/21 13:10:38;;;;;;;11.77;5.17;;;5.80;99.90;;;;;;5066576;28;20462;-39
2022/01/21 13:16:06;;;;;;;10.33;4.27;;;5.80;99.90;;;;;;5068864;28;20777;-41
2022/01/21 13:18:32;;;;;;;9.87;4.40;;;5.50;99.90;;;;;;5021207;28;20947;-39
2022/01/21 13:21:08;;;;;;;12.90;4.80;;;5.50;99.90;;;;;;5067945;28;20782;-40
2022/01/21 13:23:47;;;;;;;9.80;4.43;;;5.40;99.90;;;;;;5068636;28;20494;-39
2022/01/21 13:26:19;;;;;;;12.40;4.37;;;5.40;99.90;;;;;;5069920;28;20435;-40
2022/01/21 13:28:58;;;;;;;10.73;4.97;;;5.30;99.90;;;;;;5060559;28;20427;-40
2022/01/21 13:31:26;;;;;;;6.63;4.30;;;5.50;99.90;;;;;;5067569;28;20429;-39
2022/01/21 13:33:51;;;;;;;11.17;4.27;;;5.60;99.90;;;;;;5068769;28;20768;-40
2022/01/21 13:36:37;;;;;;;12.23;3.80;;;5.50;99.90;;;;;;5067694;28;20430;-39
2022/01/21 13:39:12;;;;;;;14.50;5.50;;;5.60;99.90;;;;;;5068823;28;20801;-39
2022/01/21 13:41:56;;;;;;;10.20;4.57;;;5.70;99.90;;;;;;5062333;28;20427;-39
2022/01/21 13:44:46;;;;;;;12.60;5.30;;;5.70;99.90;;;;;;5065518;28;20941;-40
2022/01/21 13:47:29;;;;;;;11.13;4.63;;;5.90;99.90;;;;;;5067841;28;20427;-40
2022/01/21 13:50:14;;;;;;;10.47;4.20;;;5.90;99.90;;;;;;5066246;28;20408;-39
2022/01/21 13:52:48;;;;;;;10.83;3.83;;;5.90;99.90;;;;;;5068311;28;20427;-41
2022/01/21 13:55:44;;;;;;;7.50;3.80;;;6.20;99.90;;;;;;5068036;28;20949;-41
2022/01/21 13:58:30;;;;;;;13.47;4.10;;;6.10;99.90;;;;;;5096422;27;20965;-39
2022/01/21 14:01:04;;;;;;;5.63;3.70;;;5.90;99.90;;;;;;5104537;28;20416;-40
2022/01/21 14:03:40;;;;;;;7.83;3.87;;;5.80;99.90;;;;;;5105335;28;20412;-40
2022/01/21 14:06:10;;;;;;;6.27;3.10;;;6.10;99.90;;;;;;5104972;28;20511;-42